sensor_id;sensor_type;location;lat;lon;timestamp;pressure;altitude;pressure_sealevel;temperature;humidity
61742;BME280;47650;49.848;9.620;2023-03-22T00:01:19;99420.78;;;8.77;100.00
61742;BME280;47650;49.848;9.620;2023-03-22T00:03:48;99438.28;;;8.98;100.00
61742;BME280;47650;49.848;9.620;2023-03-22T00:06:17;99404.50;;;8.72;100.00
61742;BME280;47650;49.848;9.620;2023-03-22T00:08:48;99446.13;;;8.90;100.00
61742;BME280;47650;49.848;9.620;2023-03-22T00:11:14;99417.16;;;8.59;98.31
61742;BME280;47650;49.848;9.620;2023-03-22T00:13:40;99400.94;;;8.33;98.13
61742;BME280;47650;49.848;9.620;2023-03-22T00:16:07;99404.84;;;8.38;98.73
61742;BME280;47650;49.848;9.620;2023-03-22T00:18:33;99443.97;;;8.44;98.54
61742;BME280;47650;49.848;9.620;2023-03-22T00:20:59;99385.28;;;8.00;98.24
61742;BME280;47650;49.848;9.620;2023-03-22T00:23:27;99437.88;;;8.23;98.78
61742;BME280;47650;49.848;9.620;2023-03-22T00:25:58;99436.09;;;8.33;100.00
61742;BME280;47650;49.848;9.620;2023-03-22T00:28:30;99434.28;;;8.24;99.10
61742;BME280;47650;49.848;9.620;2023-03-22T00:30:58;99418.13;;;8.17;99.30
61742;BME280;47650;49.848;9.620;2023-03-22T00:33:24;99418.84;;;7.79;97.96
61742;BME280;47650;49.848;9.620;2023-03-22T00:35:53;99430.97;;;7.60;97.18
61742;BME280;47650;49.848;9.620;2023-03-22T00:38:19;99390.78;;;7.26;97.87
61742;BME280;47650;49.848;9.620;2023-03-22T00:40:45;99420.72;;;7.67;99.78
61742;BME280;47650;49.848;9.620;2023-03-22T00:43:20;99364.69;;;7.02;98.16
61742;BME280;47650;49.848;9.620;2023-03-22T00:45:46;99415.53;;;7.34;98.50
61742;BME280;47650;49.848;9.620;2023-03-22T00:48:12;99402.28;;;7.46;99.89
61742;BME280;47650;49.848;9.620;2023-03-22T00:50:39;99418.56;;;7.51;99.32
61742;BME280;47650;49.848;9.620;2023-03-22T00:53:09;99412.94;;;7.65;100.00
61742;BME280;47650;49.848;9.620;2023-03-22T00:55:44;99423.09;;;7.49;99.59
61742;BME280;47650;49.848;9.620;2023-03-22T00:58:12;99411.84;;;7.47;98.98
61742;BME280;47650;49.848;9.620;2023-03-22T01:00:39;99411.66;;;7.39;98.74
61742;BME280;47650;49.848;9.620;2023-03-22T01:03:09;99379.53;;;7.03;98.59
61742;BME280;47650;49.848;9.620;2023-03-22T01:05:34;99384.94;;;7.01;97.99
61742;BME280;47650;49.848;9.620;2023-03-22T01:08:01;99403.31;;;7.33;99.79
61742;BME280;47650;49.848;9.620;2023-03-22T01:10:39;99370.38;;;7.28;100.00
61742;BME280;47650;49.848;9.620;2023-03-22T01:13:06;99336.22;;;7.26;100.00
61742;BME280;47650;49.848;9.620;2023-03-22T01:15:32;99363.16;;;7.51;100.00
61742;BME280;47650;49.848;9.620;2023-03-22T01:17:59;99384.09;;;7.74;100.00
61742;BME280;47650;49.848;9.620;2023-03-22T01:20:24;99347.94;;;7.64;100.00
61742;BME280;47650;49.848;9.620;2023-03-22T01:22:50;99389.31;;;7.95;100.00
61742;BME280;47650;49.848;9.620;2023-03-22T01:25:22;99388.63;;;8.02;100.00
61742;BME280;47650;49.848;9.620;2023-03-22T01:27:47;99364.44;;;7.97;100.00
61742;BME280;47650;49.848;9.620;2023-03-22T01:30:18;99380.88;;;8.10;100.00
61742;BME280;47650;49.848;9.620;2023-03-22T01:32:44;99380.47;;;8.15;100.00
61742;BME280;47650;49.848;9.620;2023-03-22T01:35:09;99380.91;;;8.20;100.00
61742;BME280;47650;49.848;9.620;2023-03-22T01:37:35;99357.53;;;8.16;100.00
61742;BME280;47650;49.848;9.620;2023-03-22T01:40:01;99363.78;;;8.15;100.00
61742;BME280;47650;49.848;9.620;2023-03-22T01:42:27;99338.88;;;8.07;100.00
61742;BME280;47650;49.848;9.620;2023-03-22T01:47:46;99373.84;;;8.31;100.00
61742;BME280;47650;49.848;9.620;2023-03-22T01:50:15;99352.28;;;8.25;99.98
61742;BME280;47650;49.848;9.620;2023-03-22T01:52:43;99335.03;;;8.12;99.98
61742;BME280;47650;49.848;9.620;2023-03-22T01:55:10;99342.38;;;8.18;100.00
61742;BME280;47650;49.848;9.620;2023-03-22T01:57:43;99371.19;;;8.40;100.00
61742;BME280;47650;49.848;9.620;2023-03-22T02:00:12;99366.72;;;8.41;100.00
61742;BME280;47650;49.848;9.620;2023-03-22T02:02:42;99363.13;;;8.42;100.00
61742;BME280;47650;49.848;9.620;2023-03-22T02:05:08;99358.97;;;8.39;99.89
61742;BME280;47650;49.848;9.620;2023-03-22T02:07:35;99348.53;;;8.38;100.00
61742;BME280;47650;49.848;9.620;2023-03-22T02:10:12;99351.75;;;8.41;100.00
61742;BME280;47650;49.848;9.620;2023-03-22T02:16:15;99348.50;;;8.28;99.28
61742;BME280;47650;49.848;9.620;2023-03-22T02:19:01;99344.72;;;8.01;97.06
61742;BME280;47650;49.848;9.620;2023-03-22T02:30:43;99336.94;;;8.09;100.00
61742;BME280;47650;49.848;9.620;2023-03-22T02:33:27;99314.97;;;7.99;100.00
61742;BME280;47650;49.848;9.620;2023-03-22T02:45:10;99326.13;;;8.13;99.69
61742;BME280;47650;49.848;9.620;2023-03-22T02:47:47;99330.56;;;8.12;99.73
61742;BME280;47650;49.848;9.620;2023-03-22T02:50:25;99328.06;;;8.10;99.72
61742;BME280;47650;49.848;9.620;2023-03-22T02:55:52;99330.56;;;8.12;99.44
61742;BME280;47650;49.848;9.620;2023-03-22T02:58:34;99334.72;;;8.15;99.65
61742;BME280;47650;49.848;9.620;2023-03-22T03:01:06;99330.84;;;8.19;99.84
61742;BME280;47650;49.848;9.620;2023-03-22T03:03:34;99328.66;;;8.24;100.00
61742;BME280;47650;49.848;9.620;2023-03-22T03:06:05;99337.00;;;8.29;100.00
61742;BME280;47650;49.848;9.620;2023-03-22T03:08:35;99302.06;;;8.16;100.00
61742;BME280;47650;49.848;9.620;2023-03-22T03:11:01;99303.88;;;8.25;100.00
61742;BME280;47650;49.848;9.620;2023-03-22T03:13:28;99328.91;;;8.40;100.00
61742;BME280;47650;49.848;9.620;2023-03-22T03:15:56;99339.25;;;8.43;100.00
61742;BME280;47650;49.848;9.620;2023-03-22T03:21:03;99351.50;;;8.44;100.00
61742;BME280;47650;49.848;9.620;2023-03-22T03:29:04;99351.50;;;8.44;100.00
61742;BME280;47650;49.848;9.620;2023-03-22T03:34:16;99344.00;;;8.50;100.00
61742;BME280;47650;49.848;9.620;2023-03-22T03:36:49;99331.56;;;8.40;100.00
61742;BME280;47650;49.848;9.620;2023-03-22T03:39:18;99337.41;;;8.34;99.47
61742;BME280;47650;49.848;9.620;2023-03-22T03:41:47;99343.78;;;8.32;99.65
61742;BME280;47650;49.848;9.620;2023-03-22T03:44:16;99342.28;;;8.29;100.00
61742;BME280;47650;49.848;9.620;2023-03-22T03:46:44;99308.88;;;8.08;100.00
61742;BME280;47650;49.848;9.620;2023-03-22T03:49:11;99291.88;;;7.72;98.30
61742;BME280;47650;49.848;9.620;2023-03-22T03:51:53;99340.44;;;7.69;97.75
61742;BME280;47650;49.848;9.620;2023-03-22T03:54:23;99285.25;;;7.16;97.32
61742;BME280;47650;49.848;9.620;2023-03-22T03:56:49;99333.91;;;7.64;99.03
61742;BME280;47650;49.848;9.620;2023-03-22T03:59:16;99297.16;;;7.41;98.98
61742;BME280;47650;49.848;9.620;2023-03-22T04:01:44;99336.03;;;7.70;99.87
61742;BME280;47650;49.848;9.620;2023-03-22T04:04:19;99318.66;;;7.67;99.91
61742;BME280;47650;49.848;9.620;2023-03-22T04:06:51;99297.09;;;7.62;100.00
61742;BME280;47650;49.848;9.620;2023-03-22T04:09:17;99322.75;;;7.91;100.00
61742;BME280;47650;49.848;9.620;2023-03-22T04:11:43;99305.63;;;7.85;100.00
61742;BME280;47650;49.848;9.620;2023-03-22T04:14:09;99330.00;;;8.08;100.00
61742;BME280;47650;49.848;9.620;2023-03-22T04:16:34;99327.09;;;8.12;100.00
61742;BME280;47650;49.848;9.620;2023-03-22T04:18:59;99321.94;;;8.10;100.00
61742;BME280;47650;49.848;9.620;2023-03-22T04:21:25;99316.41;;;8.23;100.00
61742;BME280;47650;49.848;9.620;2023-03-22T04:23:50;99316.81;;;8.28;100.00
61742;BME280;47650;49.848;9.620;2023-03-22T04:26:18;99307.22;;;8.27;100.00
61742;BME280;47650;49.848;9.620;2023-03-22T04:28:43;99281.91;;;8.15;100.00
61742;BME280;47650;49.848;9.620;2023-03-22T04:31:09;99287.50;;;8.12;99.23
61742;BME280;47650;49.848;9.620;2023-03-22T04:33:35;99297.88;;;8.13;98.74
61742;BME280;47650;49.848;9.620;2023-03-22T04:36:06;99270.09;;;7.99;100.00
61742;BME280;47650;49.848;9.620;2023-03-22T04:38:35;99283.44;;;8.07;99.26
61742;BME280;47650;49.848;9.620;2023-03-22T04:41:05;99289.72;;;8.06;99.28
61742;BME280;47650;49.848;9.620;2023-03-22T04:43:33;99285.78;;;7.91;97.76
61742;BME280;47650;49.848;9.620;2023-03-22T04:46:02;99262.13;;;7.80;99.23
61742;BME280;47650;49.848;9.620;2023-03-22T04:48:28;99260.75;;;7.76;98.26
61742;BME280;47650;49.848;9.620;2023-03-22T04:50:55;99245.72;;;7.66;99.59
61742;BME280;47650;49.848;9.620;2023-03-22T04:53:33;99281.06;;;7.95;99.65
61742;BME280;47650;49.848;9.620;2023-03-22T04:56:12;99280.81;;;7.98;99.74
61742;BME280;47650;49.848;9.620;2023-03-22T04:58:39;99280.66;;;7.99;99.87
61742;BME280;47650;49.848;9.620;2023-03-22T05:01:06;99271.63;;;8.02;99.77
61742;BME280;47650;49.848;9.620;2023-03-22T05:03:32;99272.19;;;8.05;99.80
61742;BME280;47650;49.848;9.620;2023-03-22T05:06:00;99280.81;;;8.07;99.80
61742;BME280;47650;49.848;9.620;2023-03-22T05:08:27;99283.72;;;8.04;99.98
61742;BME280;47650;49.848;9.620;2023-03-22T05:10:57;99284.56;;;8.05;99.62
61742;BME280;47650;49.848;9.620;2023-03-22T05:13:24;99280.09;;;8.05;99.66
61742;BME280;47650;49.848;9.620;2023-03-22T05:15:51;99278.16;;;8.07;99.81
61742;BME280;47650;49.848;9.620;2023-03-22T05:18:18;99276.22;;;8.09;99.83
61742;BME280;47650;49.848;9.620;2023-03-22T05:20:51;99274.97;;;8.14;100.00
61742;BME280;47650;49.848;9.620;2023-03-22T05:23:20;99281.50;;;8.09;99.27
61742;BME280;47650;49.848;9.620;2023-03-22T05:25:48;99281.22;;;8.13;99.77
61742;BME280;47650;49.848;9.620;2023-03-22T05:28:17;99277.19;;;8.08;99.15
61742;BME280;47650;49.848;9.620;2023-03-22T05:30:46;99283.03;;;8.12;99.75
61742;BME280;47650;49.848;9.620;2023-03-22T05:33:12;99275.53;;;8.07;100.00
61742;BME280;47650;49.848;9.620;2023-03-22T05:35:39;99284.16;;;8.19;99.94
61742;BME280;47650;49.848;9.620;2023-03-22T05:38:08;99289.72;;;8.26;100.00
61742;BME280;47650;49.848;9.620;2023-03-22T05:40:33;99270.81;;;8.21;100.00
61742;BME280;47650;49.848;9.620;2023-03-22T05:43:09;99296.66;;;8.27;98.94
61742;BME280;47650;49.848;9.620;2023-03-22T05:45:36;99296.38;;;8.30;99.69
61742;BME280;47650;49.848;9.620;2023-03-22T05:48:02;99302.34;;;8.32;100.00
61742;BME280;47650;49.848;9.620;2023-03-22T05:50:27;99287.22;;;8.24;99.60
61742;BME280;47650;49.848;9.620;2023-03-22T05:52:53;99297.78;;;8.34;99.65
61742;BME280;47650;49.848;9.620;2023-03-22T05:55:19;99306.69;;;8.33;99.31
61742;BME280;47650;49.848;9.620;2023-03-22T05:57:45;99288.72;;;8.27;99.53
61742;BME280;47650;49.848;9.620;2023-03-22T06:00:13;99298.91;;;8.41;99.86
61742;BME280;47650;49.848;9.620;2023-03-22T06:02:44;99291.44;;;8.46;100.00
61742;BME280;47650;49.848;9.620;2023-03-22T06:05:22;99292.25;;;8.57;100.00
61742;BME280;47650;49.848;9.620;2023-03-22T06:07:47;99295.00;;;8.65;99.89
61742;BME280;47650;49.848;9.620;2023-03-22T06:10:14;99275.81;;;8.63;99.67
61742;BME280;47650;49.848;9.620;2023-03-22T06:12:41;99292.22;;;8.76;99.61
61742;BME280;47650;49.848;9.620;2023-03-22T06:15:07;99293.31;;;8.74;99.50
61742;BME280;47650;49.848;9.620;2023-03-22T06:17:33;99283.66;;;8.55;95.99
61742;BME280;47650;49.848;9.620;2023-03-22T06:19:58;99300.19;;;8.57;96.74
61742;BME280;47650;49.848;9.620;2023-03-22T06:22:24;99298.63;;;8.54;97.12
61742;BME280;47650;49.848;9.620;2023-03-22T06:24:51;99298.91;;;8.61;97.58
61742;BME280;47650;49.848;9.620;2023-03-22T06:27:16;99290.72;;;8.64;98.32
61742;BME280;47650;49.848;9.620;2023-03-22T06:29:42;99311.28;;;8.70;97.31
61742;BME280;47650;49.848;9.620;2023-03-22T06:32:13;99306.16;;;8.69;97.28
61742;BME280;47650;49.848;9.620;2023-03-22T06:34:39;99315.59;;;8.71;97.67
61742;BME280;47650;49.848;9.620;2023-03-22T06:37:06;99321.44;;;8.75;97.57
61742;BME280;47650;49.848;9.620;2023-03-22T06:39:31;99314.47;;;8.83;98.10
61742;BME280;47650;49.848;9.620;2023-03-22T06:41:57;99303.88;;;8.93;98.70
61742;BME280;47650;49.848;9.620;2023-03-22T06:44:33;99301.91;;;9.05;98.99
61742;BME280;47650;49.848;9.620;2023-03-22T06:46:58;99295.75;;;9.14;98.45
61742;BME280;47650;49.848;9.620;2023-03-22T06:49:24;99307.13;;;9.34;99.27
61742;BME280;47650;49.848;9.620;2023-03-22T06:51:50;99307.88;;;9.54;99.33
61742;BME280;47650;49.848;9.620;2023-03-22T06:54:16;99288.31;;;9.65;99.27
61742;BME280;47650;49.848;9.620;2023-03-22T06:56:41;99297.38;;;9.90;98.73
61742;BME280;47650;49.848;9.620;2023-03-22T06:59:08;99302.63;;;10.18;99.00
61742;BME280;47650;49.848;9.620;2023-03-22T07:01:38;99268.69;;;10.31;98.82
61742;BME280;47650;49.848;9.620;2023-03-22T07:04:04;99275.00;;;10.57;98.13
61742;BME280;47650;49.848;9.620;2023-03-22T07:06:45;99295.34;;;10.92;97.24
61742;BME280;47650;49.848;9.620;2023-03-22T07:09:10;99288.72;;;10.96;95.88
61742;BME280;47650;49.848;9.620;2023-03-22T07:11:44;99283.13;;;10.99;95.20
61742;BME280;47650;49.848;9.620;2023-03-22T07:14:10;99290.53;;;11.22;94.09
61742;BME280;47650;49.848;9.620;2023-03-22T07:16:44;99280.59;;;11.58;91.57
61742;BME280;47650;49.848;9.620;2023-03-22T07:19:11;99266.91;;;11.88;88.64
61742;BME280;47650;49.848;9.620;2023-03-22T07:21:36;99282.94;;;12.12;84.89
61742;BME280;47650;49.848;9.620;2023-03-22T07:24:11;99277.66;;;12.53;84.55
61742;BME280;47650;49.848;9.620;2023-03-22T07:26:39;99272.91;;;13.21;84.94
61742;BME280;47650;49.848;9.620;2023-03-22T07:29:09;99254.44;;;13.76;82.63
61742;BME280;47650;49.848;9.620;2023-03-22T07:31:34;99271.00;;;14.63;83.06
61742;BME280;47650;49.848;9.620;2023-03-22T07:34:03;99255.00;;;15.16;77.53
61742;BME280;47650;49.848;9.620;2023-03-22T07:36:30;99267.00;;;16.02;79.66
61742;BME280;47650;49.848;9.620;2023-03-22T07:38:56;99260.69;;;17.02;76.58
61742;BME280;47650;49.848;9.620;2023-03-22T07:41:22;99262.47;;;18.13;73.42
61742;BME280;47650;49.848;9.620;2023-03-22T07:43:50;99254.84;;;19.30;72.76
61742;BME280;47650;49.848;9.620;2023-03-22T07:46:16;99266.50;;;20.46;70.83
61742;BME280;47650;49.848;9.620;2023-03-22T07:48:42;99255.66;;;21.66;68.70
61742;BME280;47650;49.848;9.620;2023-03-22T07:51:08;99229.00;;;22.60;64.80
61742;BME280;47650;49.848;9.620;2023-03-22T07:53:33;99242.00;;;23.58;63.14
61742;BME280;47650;49.848;9.620;2023-03-22T07:56:00;99247.63;;;24.71;63.92
61742;BME280;47650;49.848;9.620;2023-03-22T07:58:26;99236.69;;;25.61;66.22
61742;BME280;47650;49.848;9.620;2023-03-22T08:00:51;99212.84;;;26.18;62.53
61742;BME280;47650;49.848;9.620;2023-03-22T08:03:16;99223.28;;;26.96;60.53
61742;BME280;47650;49.848;9.620;2023-03-22T08:05:42;99219.13;;;26.56;52.35
61742;BME280;47650;49.848;9.620;2023-03-22T08:08:08;99225.34;;;27.89;57.07
61742;BME280;47650;49.848;9.620;2023-03-22T08:10:38;99214.91;;;26.65;51.48
61742;BME280;47650;49.848;9.620;2023-03-22T08:13:03;99229.84;;;25.37;45.78
61742;BME280;47650;49.848;9.620;2023-03-22T08:15:28;99217.25;;;26.24;50.85
61742;BME280;47650;49.848;9.620;2023-03-22T08:17:56;99221.81;;;25.69;52.44
61742;BME280;47650;49.848;9.620;2023-03-22T08:20:25;99218.94;;;23.96;44.67
61742;BME280;47650;49.848;9.620;2023-03-22T08:22:53;99225.69;;;24.10;44.70
61742;BME280;47650;49.848;9.620;2023-03-22T08:25:22;99208.56;;;24.89;47.37
61742;BME280;47650;49.848;9.620;2023-03-22T08:27:48;99234.75;;;23.46;44.93
61742;BME280;47650;49.848;9.620;2023-03-22T08:30:14;99237.50;;;23.11;43.33
61742;BME280;47650;49.848;9.620;2023-03-22T08:32:39;99226.94;;;23.62;49.45
61742;BME280;47650;49.848;9.620;2023-03-22T08:35:06;99233.50;;;23.14;44.38
61742;BME280;47650;49.848;9.620;2023-03-22T08:37:32;99225.03;;;22.75;42.49
61742;BME280;47650;49.848;9.620;2023-03-22T08:39:58;99221.97;;;24.45;45.27
61742;BME280;47650;49.848;9.620;2023-03-22T08:42:23;99213.69;;;25.47;36.00
61742;BME280;47650;49.848;9.620;2023-03-22T08:44:49;99202.34;;;22.52;41.80
61742;BME280;47650;49.848;9.620;2023-03-22T08:47:17;99234.34;;;20.52;43.82
61742;BME280;47650;49.848;9.620;2023-03-22T08:49:44;99241.75;;;19.54;43.86
61742;BME280;47650;49.848;9.620;2023-03-22T08:52:10;99241.88;;;18.87;46.42
61742;BME280;47650;49.848;9.620;2023-03-22T08:54:37;99243.09;;;19.11;51.83
61742;BME280;47650;49.848;9.620;2023-03-22T08:57:03;99237.69;;;18.11;52.41
61742;BME280;47650;49.848;9.620;2023-03-22T08:59:28;99230.31;;;18.40;50.93
61742;BME280;47650;49.848;9.620;2023-03-22T09:01:54;99226.78;;;18.79;54.61
61742;BME280;47650;49.848;9.620;2023-03-22T09:04:19;99224.09;;;17.58;47.35
61742;BME280;47650;49.848;9.620;2023-03-22T09:06:46;99225.31;;;18.23;50.54
61742;BME280;47650;49.848;9.620;2023-03-22T09:09:11;99204.63;;;17.29;46.92
61742;BME280;47650;49.848;9.620;2023-03-22T09:11:38;99218.81;;;17.29;48.01
61742;BME280;47650;49.848;9.620;2023-03-22T09:14:06;99215.66;;;17.61;47.03
61742;BME280;47650;49.848;9.620;2023-03-22T09:16:31;99226.53;;;17.53;47.87
61742;BME280;47650;49.848;9.620;2023-03-22T09:18:56;99207.94;;;17.86;47.80
61742;BME280;47650;49.848;9.620;2023-03-22T09:21:22;99212.59;;;17.22;48.08
61742;BME280;47650;49.848;9.620;2023-03-22T09:23:47;99201.41;;;18.42;45.93
61742;BME280;47650;49.848;9.620;2023-03-22T09:26:14;99200.75;;;18.13;44.36
61742;BME280;47650;49.848;9.620;2023-03-22T09:28:40;99201.81;;;18.52;45.64
61742;BME280;47650;49.848;9.620;2023-03-22T09:31:07;99196.44;;;18.39;44.34
61742;BME280;47650;49.848;9.620;2023-03-22T09:33:34;99204.69;;;18.17;44.25
61742;BME280;47650;49.848;9.620;2023-03-22T09:36:01;99198.47;;;17.97;45.82
61742;BME280;47650;49.848;9.620;2023-03-22T09:38:27;99188.75;;;17.96;44.62
61742;BME280;47650;49.848;9.620;2023-03-22T09:40:59;99197.97;;;17.73;45.03
61742;BME280;47650;49.848;9.620;2023-03-22T09:43:33;99182.28;;;17.63;45.60
61742;BME280;47650;49.848;9.620;2023-03-22T09:46:00;99181.13;;;17.31;45.35
61742;BME280;47650;49.848;9.620;2023-03-22T09:48:36;99174.28;;;17.22;46.62
61742;BME280;47650;49.848;9.620;2023-03-22T09:51:04;99193.03;;;17.22;46.32
61742;BME280;47650;49.848;9.620;2023-03-22T09:53:32;99185.25;;;17.89;45.62
61742;BME280;47650;49.848;9.620;2023-03-22T09:56:13;99175.97;;;19.50;40.79
61742;BME280;47650;49.848;9.620;2023-03-22T10:01:27;99165.53;;;21.55;35.82
61742;BME280;47650;49.848;9.620;2023-03-22T10:06:47;99120.13;;;28.65;24.41
61742;BME280;47650;49.848;9.620;2023-03-22T10:09:23;99134.22;;;26.38;25.23
61742;BME280;47650;49.848;9.620;2023-03-22T10:16:58;99143.19;;;25.52;25.91
61742;BME280;47650;49.848;9.620;2023-03-22T10:19:35;99133.56;;;26.26;25.35
61742;BME280;47650;49.848;9.620;2023-03-22T10:22:03;99130.69;;;27.44;24.05
61742;BME280;47650;49.848;9.620;2023-03-22T10:24:32;99114.63;;;26.36;25.11
61742;BME280;47650;49.848;9.620;2023-03-22T10:26:59;99124.44;;;25.50;26.33
61742;BME280;47650;49.848;9.620;2023-03-22T10:29:33;99125.75;;;26.72;24.68
61742;BME280;47650;49.848;9.620;2023-03-22T10:32:19;99137.63;;;24.58;26.80
61742;BME280;47650;49.848;9.620;2023-03-22T10:34:46;99126.28;;;26.69;23.94
61742;BME280;47650;49.848;9.620;2023-03-22T10:37:23;99130.66;;;25.73;25.08
61742;BME280;47650;49.848;9.620;2023-03-22T10:39:51;99102.25;;;26.56;24.83
61742;BME280;47650;49.848;9.620;2023-03-22T10:42:22;99127.78;;;24.91;26.38
61742;BME280;47650;49.848;9.620;2023-03-22T10:44:53;99123.22;;;26.23;25.72
61742;BME280;47650;49.848;9.620;2023-03-22T10:47:28;99136.22;;;23.59;28.48
61742;BME280;47650;49.848;9.620;2023-03-22T10:49:55;99115.03;;;24.70;26.94
61742;BME280;47650;49.848;9.620;2023-03-22T10:52:46;99104.66;;;28.09;24.27
61742;BME280;47650;49.848;9.620;2023-03-22T10:55:15;99116.34;;;27.64;23.39
61742;BME280;47650;49.848;9.620;2023-03-22T10:57:46;99100.38;;;27.19;23.22
61742;BME280;47650;49.848;9.620;2023-03-22T11:00:15;99098.88;;;28.67;22.09
61742;BME280;47650;49.848;9.620;2023-03-22T11:02:50;99121.06;;;27.10;23.97
61742;BME280;47650;49.848;9.620;2023-03-22T11:05:24;99109.03;;;26.96;24.83
61742;BME280;47650;49.848;9.620;2023-03-22T11:07:51;99101.91;;;27.89;24.05
61742;BME280;47650;49.848;9.620;2023-03-22T11:10:23;99088.63;;;26.51;24.77
61742;BME280;47650;49.848;9.620;2023-03-22T11:15:39;99113.19;;;22.52;29.38
61742;BME280;47650;49.848;9.620;2023-03-22T11:18:07;99107.34;;;23.19;29.25
61742;BME280;47650;49.848;9.620;2023-03-22T11:20:39;99107.50;;;22.18;31.05
61742;BME280;47650;49.848;9.620;2023-03-22T11:23:04;99082.34;;;21.94;30.71
61742;BME280;47650;49.848;9.620;2023-03-22T11:25:35;99100.34;;;23.35;29.35
61742;BME280;47650;49.848;9.620;2023-03-22T11:28:18;99106.56;;;23.36;28.57
61742;BME280;47650;49.848;9.620;2023-03-22T11:33:53;99083.56;;;26.22;24.87
61742;BME280;47650;49.848;9.620;2023-03-22T11:36:19;99080.88;;;24.91;26.30
61742;BME280;47650;49.848;9.620;2023-03-22T11:38:44;99093.06;;;22.71;28.89
61742;BME280;47650;49.848;9.620;2023-03-22T11:41:23;99090.72;;;22.16;29.60
61742;BME280;47650;49.848;9.620;2023-03-22T11:43:57;99103.56;;;22.32;30.42
61742;BME280;47650;49.848;9.620;2023-03-22T11:46:29;99096.59;;;21.29;31.28
61742;BME280;47650;49.848;9.620;2023-03-22T11:49:00;99089.66;;;21.51;30.93
61742;BME280;47650;49.848;9.620;2023-03-22T11:51:31;99091.38;;;20.97;31.88
61742;BME280;47650;49.848;9.620;2023-03-22T11:54:23;99082.78;;;21.37;31.43
61742;BME280;47650;49.848;9.620;2023-03-22T11:56:49;99065.91;;;22.90;28.80
61742;BME280;47650;49.848;9.620;2023-03-22T11:59:27;99048.19;;;25.52;25.41
61742;BME280;47650;49.848;9.620;2023-03-22T12:01:57;99040.94;;;25.58;24.95
61742;BME280;47650;49.848;9.620;2023-03-22T12:04:26;99054.59;;;24.13;26.76
61742;BME280;47650;49.848;9.620;2023-03-22T12:06:56;99049.44;;;25.66;25.29
61742;BME280;47650;49.848;9.620;2023-03-22T12:09:55;99048.13;;;25.47;26.02
61742;BME280;47650;49.848;9.620;2023-03-22T12:12:28;99041.47;;;26.72;24.64
61742;BME280;47650;49.848;9.620;2023-03-22T12:15:00;99022.91;;;27.89;22.67
61742;BME280;47650;49.848;9.620;2023-03-22T12:23:19;99026.00;;;26.35;24.78
61742;BME280;47650;49.848;9.620;2023-03-22T12:25:53;99032.59;;;25.64;24.98
61742;BME280;47650;49.848;9.620;2023-03-22T12:28:33;99021.75;;;24.27;26.82
61742;BME280;47650;49.848;9.620;2023-03-22T12:31:01;99029.84;;;26.34;25.11
61742;BME280;47650;49.848;9.620;2023-03-22T12:33:42;99031.16;;;23.85;26.82
61742;BME280;47650;49.848;9.620;2023-03-22T12:36:16;99036.06;;;25.32;25.93
61742;BME280;47650;49.848;9.620;2023-03-22T12:38:44;99034.25;;;23.02;27.87
61742;BME280;47650;49.848;9.620;2023-03-22T12:41:15;99034.50;;;22.89;28.80
61742;BME280;47650;49.848;9.620;2023-03-22T12:44:03;99034.59;;;23.06;28.79
61742;BME280;47650;49.848;9.620;2023-03-22T12:49:37;99033.66;;;22.60;28.77
61742;BME280;47650;49.848;9.620;2023-03-22T12:52:16;99019.88;;;24.49;26.55
61742;BME280;47650;49.848;9.620;2023-03-22T12:54:43;99018.53;;;26.53;24.86
61742;BME280;47650;49.848;9.620;2023-03-22T12:57:13;99007.50;;;26.27;23.86
61742;BME280;47650;49.848;9.620;2023-03-22T12:59:48;99009.56;;;27.41;23.02
61742;BME280;47650;49.848;9.620;2023-03-22T13:02:17;99004.88;;;25.08;25.35
61742;BME280;47650;49.848;9.620;2023-03-22T13:04:52;99007.19;;;25.21;25.92
61742;BME280;47650;49.848;9.620;2023-03-22T13:09:53;98999.06;;;24.72;26.58
61742;BME280;47650;49.848;9.620;2023-03-22T13:20:00;99002.31;;;24.13;27.12
61742;BME280;47650;49.848;9.620;2023-03-22T13:27:50;98979.47;;;24.03;27.50
61742;BME280;47650;49.848;9.620;2023-03-22T13:35:26;98986.00;;;22.42;29.82
61742;BME280;47650;49.848;9.620;2023-03-22T13:38:00;98975.56;;;22.86;29.56
61742;BME280;47650;49.848;9.620;2023-03-22T13:46:00;98963.03;;;22.68;29.32
61742;BME280;47650;49.848;9.620;2023-03-22T13:54:09;98952.00;;;21.82;29.80
61742;BME280;47650;49.848;9.620;2023-03-22T13:56:54;98952.47;;;21.90;28.87
61742;BME280;47650;49.848;9.620;2023-03-22T13:59:30;98942.94;;;23.72;26.83
61742;BME280;47650;49.848;9.620;2023-03-22T14:02:16;98935.78;;;24.61;25.83
61742;BME280;47650;49.848;9.620;2023-03-22T14:05:00;98932.56;;;25.94;23.67
61742;BME280;47650;49.848;9.620;2023-03-22T14:07:48;98936.19;;;25.99;23.98
61742;BME280;47650;49.848;9.620;2023-03-22T14:10:45;98926.38;;;24.69;24.70
61742;BME280;47650;49.848;9.620;2023-03-22T14:13:29;98912.72;;;24.14;25.28
61742;BME280;47650;49.848;9.620;2023-03-22T14:16:01;98921.41;;;24.61;25.11
61742;BME280;47650;49.848;9.620;2023-03-22T14:18:33;98918.13;;;24.14;25.79
61742;BME280;47650;49.848;9.620;2023-03-22T14:21:06;98912.75;;;23.80;26.30
61742;BME280;47650;49.848;9.620;2023-03-22T14:23:35;98922.38;;;23.71;26.37
61742;BME280;47650;49.848;9.620;2023-03-22T14:26:15;98894.84;;;24.90;25.12
61742;BME280;47650;49.848;9.620;2023-03-22T14:28:42;98910.72;;;25.30;25.00
61742;BME280;47650;49.848;9.620;2023-03-22T14:31:26;98905.75;;;23.45;26.76
61742;BME280;47650;49.848;9.620;2023-03-22T14:33:55;98906.03;;;24.22;25.71
61742;BME280;47650;49.848;9.620;2023-03-22T14:36:33;98892.47;;;24.66;25.09
61742;BME280;47650;49.848;9.620;2023-03-22T14:39:10;98883.94;;;24.80;25.00
61742;BME280;47650;49.848;9.620;2023-03-22T14:41:55;98886.13;;;26.48;23.29
61742;BME280;47650;49.848;9.620;2023-03-22T14:44:27;98897.81;;;26.49;23.10
61742;BME280;47650;49.848;9.620;2023-03-22T14:47:20;98881.97;;;26.20;23.09
61742;BME280;47650;49.848;9.620;2023-03-22T14:49:50;98875.00;;;27.83;21.53
61742;BME280;47650;49.848;9.620;2023-03-22T14:52:20;98862.47;;;28.52;20.57